Terminal Aerodrome Forecast
Issued by NWS Cleveland, OH

Home | Current Version | Previous Version | Graphics & Text | Print | Product List | Glossary On
Versions: 1 2 3 4 5 6 7 8 9 10 11 12 13 14 15 16 17 18 19 20
000
FTUS41 KCLE 182300
TAFYNG
TAF
KYNG 182327Z 1900/1924 02006KT P6SM SCT070
     FM190600 VRB03KT 4SM BR SCT250
     FM190900 00000KT 2SM BR SCT250
     FM191300 VRB03KT 4SM BR SCT100
     FM191430 18005KT P6SM SCT040 BKN100
     FM192100 23008KT P6SM BKN035
      TEMPO 1922/1924 3SM TSRA OVC025CB=

USA.gov is the U.S. government's official web portal to all federal, state and local government web resources and services.